Time;durP1;ratioP1;P1;durP2;ratioP2;P2;SDS_P1;SDS_P2;PMS_P1;PMS_P2;Temp;Humidity;BMP_temperature;BMP_pressure;BME280_temperature;BME280_humidity;BME280_pressure;Samples;Min_cycle;Max_cycle;Signal;HPM_P1;HPM_P2
2024/03/23 00:00:32;;;;;;;2.88;1.73;;;;;;;9.79;100.00;92493.28;2092056;28;20032;-85
2024/03/23 00:01:34;;;;;;;1.55;1.45;;;;;;;10.08;100.00;92484.44;2095599;28;20128;-85
2024/03/23 00:02:36;;;;;;;1.38;1.27;;;;;;;10.19;100.00;92482.19;2082679;28;20107;-85
2024/03/23 00:03:38;;;;;;;5.35;1.70;;;;;;;10.44;100.00;92484.09;2102028;28;20107;-85
2024/03/23 00:04:40;;;;;;;3.33;1.20;;;;;;;10.57;100.00;92476.81;2094536;28;20067;-85
2024/03/23 00:05:43;;;;;;;2.30;1.58;;;;;;;10.63;100.00;92468.28;2101996;28;20039;-85
2024/03/23 00:06:45;;;;;;;2.03;1.83;;;;;;;11.00;100.00;92475.44;2114666;27;20027;-86
2024/03/23 00:07:47;;;;;;;2.05;1.70;;;;;;;11.12;100.00;92475.81;2081113;28;20059;-85
2024/03/23 00:08:49;;;;;;;2.83;1.60;;;;;;;11.16;100.00;92469.16;2085576;27;20025;-85
2024/03/23 00:09:51;;;;;;;4.30;1.85;;;;;;;11.24;100.00;92467.75;2101466;28;20043;-85
2024/03/23 00:10:53;;;;;;;3.88;1.48;;;;;;;11.21;100.00;92463.25;2092310;28;20644;-85
2024/03/23 00:11:55;;;;;;;2.08;1.38;;;;;;;11.21;100.00;92465.94;2101746;28;20038;-85
2024/03/23 00:13:01;;;;;;;4.82;1.70;;;;;;;11.28;100.00;92460.34;2094737;28;20024;-85
2024/03/23 00:14:04;;;;;;;3.08;1.55;;;;;;;11.57;100.00;92465.41;2092847;28;20028;-85
2024/03/23 00:15:06;;;;;;;2.17;1.55;;;;;;;11.53;100.00;92462.13;2108224;28;20070;-84
2024/03/23 00:16:08;;;;;;;3.65;1.73;;;;;;;11.75;100.00;92464.75;2089831;28;20032;-85
2024/03/23 00:17:11;;;;;;;2.80;1.42;;;;;;;11.73;100.00;92459.13;2096893;28;20103;-84
2024/03/23 00:18:13;;;;;;;2.55;1.50;;;;;;;11.94;100.00;92452.25;2105159;27;20120;-85
2024/03/23 00:19:15;;;;;;;4.22;1.85;;;;;;;11.98;100.00;92452.09;2100585;28;20089;-85
2024/03/23 00:20:17;;;;;;;2.47;1.45;;;;;;;11.81;100.00;92452.31;2098134;28;20635;-84
2024/03/23 00:21:19;;;;;;;2.05;1.55;;;;;;;11.88;100.00;92451.31;2093577;28;20511;-85
2024/03/23 00:22:21;;;;;;;1.23;1.13;;;;;;;11.80;100.00;92447.38;2099339;28;20055;-85
2024/03/23 00:23:23;;;;;;;2.03;1.42;;;;;;;11.74;100.00;92441.13;2114153;28;20487;-84
2024/03/23 00:24:26;;;;;;;1.70;1.40;;;;;;;11.87;100.00;92431.09;2073708;28;30985;-85
2024/03/23 00:25:28;;;;;;;3.03;1.60;;;;;;;11.90;100.00;92448.97;2096120;28;20079;-85
2024/03/23 00:26:31;;;;;;;2.15;1.45;;;;;;;11.85;100.00;92438.81;2083293;28;20055;-85
2024/03/23 00:27:33;;;;;;;2.67;1.13;;;;;;;11.91;100.00;92437.06;2106423;28;20100;-84
2024/03/23 00:28:35;;;;;;;1.63;1.20;;;;;;;12.04;100.00;92445.75;2109531;27;20026;-85
2024/03/23 00:29:37;;;;;;;2.58;1.50;;;;;;;11.90;100.00;92440.94;2093271;28;22627;-85
2024/03/23 00:30:39;;;;;;;1.50;1.40;;;;;;;12.07;100.00;92444.09;2104377;28;20058;-85
2024/03/23 00:31:41;;;;;;;3.30;1.42;;;;;;;12.28;100.00;92450.56;2090918;28;20847;-85
2024/03/23 00:32:43;;;;;;;3.75;1.20;;;;;;;12.45;100.00;92443.03;2108661;28;20445;-85
2024/03/23 00:33:45;;;;;;;2.67;1.30;;;;;;;12.22;100.00;92434.34;2091174;28;20055;-85
2024/03/23 00:34:48;;;;;;;2.40;1.30;;;;;;;12.22;100.00;92436.28;2109757;28;20024;-85
2024/03/23 00:35:50;;;;;;;3.25;1.20;;;;;;;12.28;100.00;92434.50;2104942;27;20040;-85
2024/03/23 00:36:52;;;;;;;1.52;1.40;;;;;;;12.28;100.00;92437.19;2092476;28;20032;-85
2024/03/23 00:37:54;;;;;;;2.65;1.38;;;;;;;12.42;100.00;92436.59;2104913;28;20039;-85
2024/03/23 00:38:56;;;;;;;1.60;1.50;;;;;;;12.46;100.00;92439.16;2103259;28;20028;-85
2024/03/23 00:39:58;;;;;;;2.50;1.30;;;;;;;12.57;100.00;92436.81;2088432;28;20055;-83
2024/03/23 00:41:00;;;;;;;1.42;1.30;;;;;;;12.53;100.00;92426.22;2103323;28;20439;-84
2024/03/23 00:42:02;;;;;;;1.63;1.23;;;;;;;12.38;100.00;92421.84;2077305;28;20142;-85
2024/03/23 00:43:04;;;;;;;2.15;1.25;;;;;;;12.39;100.00;92420.69;2099965;28;20078;-85
2024/03/23 00:44:06;;;;;;;2.97;1.30;;;;;;;12.46;100.00;92423.06;2075517;28;20180;-85
2024/03/23 00:45:08;;;;;;;2.47;1.40;;;;;;;12.19;100.00;92419.13;2101039;28;20098;-83
2024/03/23 00:46:10;;;;;;;2.15;1.20;;;;;;;12.16;100.00;92416.59;2088172;28;20480;-85
2024/03/23 00:47:12;;;;;;;1.98;1.33;;;;;;;12.07;100.00;92418.09;2078671;28;20051;-84
2024/03/23 00:48:15;;;;;;;1.90;1.17;;;;;;;12.04;100.00;92415.53;2084830;28;20049;-85
2024/03/23 00:49:17;;;;;;;3.60;1.35;;;;;;;12.21;100.00;92414.09;2083739;28;20024;-85
2024/03/23 00:50:19;;;;;;;1.52;1.23;;;;;;;12.22;100.00;92410.22;2103847;28;20020;-85
2024/03/23 00:51:21;;;;;;;1.40;1.30;;;;;;;12.19;100.00;92407.69;2086351;28;20476;-84
2024/03/23 00:52:23;;;;;;;1.40;1.30;;;;;;;12.29;100.00;92404.59;2106008;28;20388;-84
2024/03/23 00:53:25;;;;;;;1.83;1.63;;;;;;;12.40;100.00;92406.09;2091138;28;20024;-85
2024/03/23 00:54:26;;;;;;;1.20;1.10;;;;;;;12.46;100.00;92404.31;2097367;28;20091;-85
2024/03/23 00:55:27;;;;;;;1.67;1.25;;;;;;;12.51;100.00;92404.47;2103747;28;20461;-85
2024/03/23 00:56:28;;;;;;;2.25;1.42;;;;;;;12.43;100.00;92405.97;2079189;28;20028;-85
2024/03/23 00:57:29;;;;;;;2.03;1.10;;;;;;;12.46;100.00;92402.38;2107839;28;20032;-85
2024/03/23 00:58:30;;;;;;;1.42;1.33;;;;;;;12.31;100.00;92414.84;2097816;28;20138;-85
2024/03/23 00:59:31;;;;;;;1.70;1.42;;;;;;;12.40;100.00;92409.50;2091984;28;21356;-84
2024/03/23 01:00:32;;;;;;;2.55;1.40;;;;;;;12.53;100.00;92404.78;2102572;28;20024;-84
2024/03/23 01:01:33;;;;;;;1.25;1.10;;;;;;;12.49;100.00;92406.84;2092399;28;20138;-85
2024/03/23 01:02:34;;;;;;;2.35;1.30;;;;;;;12.35;100.00;92402.81;2085145;28;20031;-84
2024/03/23 01:03:35;;;;;;;3.08;1.40;;;;;;;12.32;100.00;92405.63;2096701;28;20024;-85
2024/03/23 01:04:36;;;;;;;1.50;1.15;;;;;;;12.12;100.00;92403.34;2093698;28;20074;-85
2024/03/23 01:05:37;;;;;;;1.90;1.50;;;;;;;12.37;100.00;92402.34;2104089;28;20016;-85
2024/03/23 01:06:38;;;;;;;2.40;2.20;;;;;;;12.39;100.00;92407.28;2083464;28;20024;-85
2024/03/23 01:07:40;;;;;;;1.50;1.20;;;;;;;12.27;100.00;92409.63;2082136;28;20017;-84
2024/03/23 01:08:41;;;;;;;2.40;1.42;;;;;;;12.28;100.00;92408.44;2089154;28;20021;-84
2024/03/23 01:09:42;;;;;;;1.58;1.20;;;;;;;12.37;100.00;92410.41;2076033;28;20100;-85
2024/03/23 01:10:43;;;;;;;2.97;1.30;;;;;;;12.33;100.00;92402.50;2096660;28;20036;-85
2024/03/23 01:11:44;;;;;;;1.75;1.30;;;;;;;12.30;100.00;92398.03;2101019;28;20091;-85
2024/03/23 01:12:46;;;;;;;1.30;1.20;;;;;;;12.05;100.00;92398.28;2091248;28;20027;-86
2024/03/23 01:13:47;;;;;;;2.45;1.20;;;;;;;11.93;100.00;92385.72;2097137;28;20020;-85
2024/03/23 01:14:48;;;;;;;1.67;1.45;;;;;;;11.67;100.00;92382.47;2100737;28;20114;-85
2024/03/23 01:15:50;;;;;;;1.83;1.17;;;;;;;11.67;100.00;92385.91;2110151;28;20553;-85
2024/03/23 01:16:51;;;;;;;1.50;1.40;;;;;;;11.41;100.00;92392.63;2087263;28;20035;-85
2024/03/23 01:17:52;;;;;;;3.55;1.17;;;;;;;11.26;100.00;92389.72;2078297;28;21442;-85
2024/03/23 01:18:53;;;;;;;1.40;1.30;;;;;;;11.50;100.00;92392.66;2097567;28;20104;-85
2024/03/23 01:19:54;;;;;;;1.77;1.10;;;;;;;11.48;100.00;92387.75;2090973;28;20111;-85
2024/03/23 01:20:55;;;;;;;2.72;1.20;;;;;;;11.65;100.00;92390.22;2099420;28;20079;-85
2024/03/23 01:21:56;;;;;;;1.90;1.20;;;;;;;11.64;100.00;92375.34;2083884;28;20055;-84
2024/03/23 01:22:57;;;;;;;1.20;1.10;;;;;;;11.42;100.00;92386.84;2094149;28;20016;-84
2024/03/23 01:23:58;;;;;;;3.15;1.35;;;;;;;11.36;100.00;92380.56;2105583;28;20066;-84
2024/03/23 01:24:59;;;;;;;3.38;1.20;;;;;;;11.41;100.00;92371.22;2093365;28;20026;-85
2024/03/23 01:26:00;;;;;;;1.75;1.40;;;;;;;11.27;100.00;92372.47;2093082;28;20013;-85
2024/03/23 01:27:01;;;;;;;1.30;1.20;;;;;;;11.17;100.00;92373.63;2083343;28;20044;-84
2024/03/23 01:28:02;;;;;;;2.30;1.10;;;;;;;11.13;100.00;92367.66;2095970;28;20039;-84
2024/03/23 01:29:05;;;;;;;1.33;1.10;;;;;;;11.07;100.00;92368.22;2108138;28;20019;-85
2024/03/23 01:30:07;;;;;;;1.42;1.33;;;;;;;10.94;100.00;92370.22;2097353;28;20042;-85
2024/03/23 01:31:08;;;;;;;2.38;1.20;;;;;;;11.06;100.00;92364.06;2111717;28;20023;-84
2024/03/23 01:32:09;;;;;;;1.70;1.33;;;;;;;10.95;100.00;92363.69;2101383;28;20032;-84
2024/03/23 01:33:10;;;;;;;2.13;1.45;;;;;;;11.03;100.00;92361.50;2088453;28;20013;-84
2024/03/23 01:34:12;;;;;;;1.80;1.30;;;;;;;10.96;100.00;92364.41;2111137;28;20156;-85
2024/03/23 01:35:13;;;;;;;3.75;1.58;;;;;;;10.78;100.00;92354.34;2093390;28;20027;-85
2024/03/23 01:36:14;;;;;;;2.45;1.40;;;;;;;10.60;100.00;92352.28;2101628;28;20020;-85
2024/03/23 01:37:15;;;;;;;1.42;1.30;;;;;;;10.46;100.00;92352.78;2082821;28;20028;-84
2024/03/23 01:38:16;;;;;;;2.10;1.25;;;;;;;10.73;100.00;92354.91;2104975;28;20028;-84
2024/03/23 01:39:17;;;;;;;1.40;1.30;;;;;;;10.80;100.00;92357.34;2101002;28;20024;-85
2024/03/23 01:40:19;;;;;;;1.88;1.33;;;;;;;10.83;100.00;92351.13;2094364;28;20092;-84
2024/03/23 01:41:20;;;;;;;3.47;1.30;;;;;;;10.90;100.00;92350.13;2110555;28;20047;-85
2024/03/23 01:42:22;;;;;;;1.35;1.25;;;;;;;10.65;100.00;92351.00;2084708;28;20016;-84
2024/03/23 01:43:23;;;;;;;2.17;1.27;;;;;;;10.54;100.00;92362.78;2089264;28;20032;-85
2024/03/23 01:44:24;;;;;;;1.75;1.25;;;;;;;10.77;100.00;92356.28;2103268;28;20026;-85
2024/03/23 01:45:25;;;;;;;1.38;1.20;;;;;;;10.87;100.00;92341.03;2088523;28;20115;-85
2024/03/23 01:46:26;;;;;;;2.60;1.48;;;;;;;10.72;100.00;92351.50;2083854;28;20108;-84
2024/03/23 01:47:28;;;;;;;3.15;1.60;;;;;;;10.79;100.00;92345.13;2091468;28;20029;-85
2024/03/23 01:48:29;;;;;;;1.77;1.30;;;;;;;10.64;100.00;92346.84;2081331;28;20324;-85
2024/03/23 01:49:30;;;;;;;3.25;1.30;;;;;;;10.51;100.00;92350.28;2103260;28;20554;-85
2024/03/23 01:50:35;;;;;;;2.35;1.30;;;;;;;10.51;100.00;92352.97;2083662;28;20345;-85
2024/03/23 01:51:37;;;;;;;1.67;1.58;;;;;;;10.67;100.00;92352.06;2100768;28;20062;-84
2024/03/23 01:52:38;;;;;;;3.70;1.50;;;;;;;10.80;100.00;92343.97;2086430;28;20032;-85
2024/03/23 01:53:39;;;;;;;1.90;1.50;;;;;;;10.70;100.00;92339.72;2008722;28;20067;-85
2024/03/23 01:54:40;;;;;;;1.40;1.30;;;;;;;10.69;100.00;92341.66;2026400;28;20440;-84
2024/03/23 01:55:41;;;;;;;2.38;1.30;;;;;;;10.21;100.00;92337.53;2028341;28;20028;-84
2024/03/23 01:56:42;;;;;;;1.38;1.27;;;;;;;10.20;100.00;92341.41;2032675;28;20073;-85
2024/03/23 01:57:43;;;;;;;1.63;1.50;;;;;;;10.36;100.00;92341.28;2052439;28;23456;-84
2024/03/23 01:58:45;;;;;;;4.47;1.30;;;;;;;10.64;100.00;92341.47;2063470;27;20032;-84
2024/03/23 01:59:47;;;;;;;1.83;1.50;;;;;;;10.44;100.00;92347.09;2073421;27;22153;-85
2024/03/23 02:00:48;;;;;;;1.60;1.48;;;;;;;10.61;100.00;92331.66;2059309;28;20158;-84
2024/03/23 02:01:49;;;;;;;3.22;1.50;;;;;;;10.41;100.00;92319.34;2081395;28;20038;-84
2024/03/23 02:02:50;;;;;;;2.35;1.35;;;;;;;10.55;100.00;92324.19;2096459;27;20496;-84
2024/03/23 02:04:31;;;;;;;1.88;1.50;;;;;;;10.30;100.00;92321.63;2087894;28;20107;-85
2024/03/23 02:05:32;;;;;;;4.18;1.40;;;;;;;11.01;100.00;92319.13;2109171;28;20149;-85
2024/03/23 02:06:33;;;;;;;1.88;1.30;;;;;;;10.96;100.00;92310.94;2104824;28;20024;-85
2024/03/23 02:07:34;;;;;;;1.35;1.15;;;;;;;10.93;100.00;92317.16;2097291;28;20035;-85
2024/03/23 02:08:35;;;;;;;1.73;1.40;;;;;;;11.03;100.00;92308.03;2108659;28;20403;-85
2024/03/23 02:09:36;;;;;;;1.63;1.40;;;;;;;10.86;100.00;92317.44;2104320;28;20035;-85
2024/03/23 02:10:37;;;;;;;1.55;1.30;;;;;;;10.55;100.00;92305.50;2114240;28;20027;-85
2024/03/23 02:11:38;;;;;;;2.20;1.20;;;;;;;10.73;100.00;92306.81;2109832;28;20012;-85
2024/03/23 02:12:39;;;;;;;3.33;1.30;;;;;;;10.70;100.00;92305.00;2102148;28;20096;-85
2024/03/23 02:13:40;;;;;;;2.70;1.40;;;;;;;10.56;100.00;92304.31;2102756;28;20015;-84
2024/03/23 02:14:41;;;;;;;1.50;1.40;;;;;;;10.85;100.00;92306.00;2111131;28;20485;-85
2024/03/23 02:15:42;;;;;;;3.00;1.67;;;;;;;10.49;100.00;92307.25;2117612;27;20058;-85
2024/03/23 02:16:43;;;;;;;4.63;1.50;;;;;;;10.63;100.00;92300.66;2105184;28;20028;-85
2024/03/23 02:17:44;;;;;;;1.60;1.50;;;;;;;10.90;100.00;92294.72;2094947;28;20055;-85
2024/03/23 02:18:45;;;;;;;2.85;1.70;;;;;;;10.96;100.00;92302.91;2113318;28;20036;-85
2024/03/23 02:19:46;;;;;;;1.75;1.65;;;;;;;10.78;100.00;92290.94;2110742;28;20028;-85
2024/03/23 02:20:47;;;;;;;2.97;1.80;;;;;;;11.46;100.00;92301.09;2096926;28;20422;-85
2024/03/23 02:21:48;;;;;;;2.78;2.00;;;;;;;11.84;100.00;92298.81;2103237;28;20016;-86
2024/03/23 02:22:53;;;;;;;3.30;2.20;;;;;;;12.47;100.00;92299.34;2102619;28;20015;-85
2024/03/23 02:23:54;;;;;;;4.85;2.58;;;;;;;12.50;100.00;92281.59;2106578;28;20030;-85
2024/03/23 02:24:55;;;;;;;2.65;2.45;;;;;;;12.88;100.00;92275.75;2119993;27;20020;-85
2024/03/23 02:27:21;;;;;;;;;;;;;;;10.80;100.00;92285.16;2132747;27;20187;-85
2024/03/23 02:28:22;;;;;;;3.28;2.10;;;;;;;11.26;100.00;92283.44;2117097;28;19972;-84
2024/03/23 02:29:23;;;;;;;4.70;2.50;;;;;;;11.58;100.00;92281.47;2109579;27;20063;-83
2024/03/23 02:30:25;;;;;;;5.63;2.95;;;;;;;11.64;100.00;92269.00;2111034;28;20020;-84
2024/03/23 02:31:27;;;;;;;4.18;2.40;;;;;;;11.58;100.00;92274.19;2098729;28;20025;-86
2024/03/23 02:32:29;;;;;;;4.05;2.60;;;;;;;11.60;100.00;92271.09;2109637;28;20024;-82
2024/03/23 02:33:30;;;;;;;2.95;2.35;;;;;;;11.78;100.00;92276.47;2113899;28;20076;-84
2024/03/23 02:34:31;;;;;;;3.63;2.17;;;;;;;11.72;100.00;92280.16;2105845;28;20057;-82
2024/03/23 02:35:33;;;;;;;2.50;2.28;;;;;;;12.13;100.00;92281.63;2098813;28;20378;-82
2024/03/23 02:36:34;;;;;;;4.35;2.05;;;;;;;12.17;100.00;92276.13;2100916;28;20047;-83
2024/03/23 02:37:35;;;;;;;2.30;2.10;;;;;;;12.20;100.00;92283.25;2109602;28;20016;-82
2024/03/23 02:38:36;;;;;;;3.15;2.10;;;;;;;12.25;100.00;92271.94;2101520;28;20477;-82
2024/03/23 02:39:37;;;;;;;4.63;2.30;;;;;;;12.39;100.00;92275.97;2106337;28;20078;-84
2024/03/23 02:40:38;;;;;;;3.33;2.00;;;;;;;12.31;100.00;92281.63;2114699;28;20094;-82
2024/03/23 02:41:39;;;;;;;4.10;2.40;;;;;;;12.09;100.00;92276.41;2104274;28;20449;-81
2024/03/23 02:42:41;;;;;;;6.70;2.65;;;;;;;12.02;100.00;92275.94;2105876;28;20480;-82
2024/03/23 02:43:42;;;;;;;2.10;1.90;;;;;;;12.29;100.00;92278.66;2100107;28;20103;-83
2024/03/23 02:44:43;;;;;;;4.13;2.08;;;;;;;12.43;100.00;92277.31;2118782;27;20031;-85
2024/03/23 02:45:44;;;;;;;3.75;2.20;;;;;;;12.48;100.00;92271.34;2113293;28;20020;-82
2024/03/23 02:46:44;;;;;;;3.13;2.28;;;;;;;12.41;100.00;92266.28;2102633;28;20105;-82
2024/03/23 02:47:45;;;;;;;2.50;2.05;;;;;;;12.47;100.00;92269.84;2097297;28;20392;-81
2024/03/23 02:48:49;;;;;;;4.80;1.98;;;;;;;12.40;100.00;92267.47;2100563;28;20119;-82
2024/03/23 02:49:49;;;;;;;2.17;1.80;;;;;;;12.36;100.00;92274.91;2107456;27;20936;-82
2024/03/23 02:50:50;;;;;;;5.90;1.90;;;;;;;12.32;100.00;92268.97;2009136;28;20042;-81
2024/03/23 02:51:51;;;;;;;2.50;2.30;;;;;;;12.38;100.00;92272.53;2026458;28;20035;-81
2024/03/23 02:52:52;;;;;;;4.82;1.98;;;;;;;12.34;100.00;92288.03;2035077;28;20110;-82
2024/03/23 02:53:53;;;;;;;3.13;2.03;;;;;;;12.26;100.00;92268.06;2034912;28;20448;-84
2024/03/23 02:54:54;;;;;;;2.97;1.90;;;;;;;12.23;100.00;92268.97;2031499;28;20035;-83
2024/03/23 02:55:58;;;;;;;3.75;2.03;;;;;;;12.16;100.00;92264.66;2027059;28;20067;-82
2024/03/23 02:56:59;;;;;;;2.63;1.90;;;;;;;12.06;100.00;92266.56;2056460;27;20031;-83
2024/03/23 02:58:01;;;;;;;2.53;1.80;;;;;;;12.06;100.00;92263.88;2059898;27;20438;-82
2024/03/23 02:59:02;;;;;;;2.83;1.90;;;;;;;11.98;100.00;92253.91;2048721;28;22781;-83
2024/03/23 03:00:05;;;;;;;3.20;1.63;;;;;;;12.29;100.00;92269.84;2050026;28;21667;-83
2024/03/23 03:01:07;;;;;;;1.80;1.70;;;;;;;12.27;100.00;92264.94;2055214;28;20031;-82
2024/03/23 03:02:08;;;;;;;3.83;1.70;;;;;;;12.17;100.00;92257.34;2075150;28;20118;-81
2024/03/23 03:03:09;;;;;;;4.85;1.70;;;;;;;12.03;100.00;92266.72;2085354;28;20028;-82
2024/03/23 03:04:10;;;;;;;1.63;1.50;;;;;;;11.80;100.00;92254.59;2093926;28;20062;-81
2024/03/23 03:05:12;;;;;;;2.80;1.63;;;;;;;11.80;100.00;92263.38;2092303;28;20045;-81
2024/03/23 03:06:23;;;;;;;3.03;1.60;;;;;;;11.71;100.00;92258.00;2105369;28;20554;-82
2024/03/23 03:07:24;;;;;;;4.85;1.70;;;;;;;11.70;100.00;92258.47;2117630;27;20028;-85
2024/03/23 03:08:25;;;;;;;2.50;1.70;;;;;;;11.79;100.00;92259.22;2104061;28;20447;-83
2024/03/23 03:09:26;;;;;;;4.97;1.65;;;;;;;11.76;100.00;92268.13;2099931;28;20017;-82
2024/03/23 03:10:27;;;;;;;1.55;1.40;;;;;;;11.78;100.00;92251.63;2098017;28;20084;-81
2024/03/23 03:11:28;;;;;;;5.32;1.85;;;;;;;11.63;100.00;92251.44;2103885;28;20404;-82
2024/03/23 03:12:29;;;;;;;2.20;1.95;;;;;;;11.82;100.00;92252.25;2099680;28;20028;-81
2024/03/23 03:13:30;;;;;;;3.60;1.77;;;;;;;11.70;100.00;92250.44;2097556;28;20021;-83
2024/03/23 03:14:31;;;;;;;2.47;1.60;;;;;;;11.80;100.00;92250.00;2100187;28;20021;-83
2024/03/23 03:15:32;;;;;;;2.25;1.63;;;;;;;11.94;100.00;92254.06;2097353;28;20032;-80
2024/03/23 03:16:33;;;;;;;1.60;1.40;;;;;;;11.68;100.00;92252.81;2106072;28;20020;-81
2024/03/23 03:17:34;;;;;;;4.80;1.77;;;;;;;11.82;100.00;92246.88;2113765;28;20031;-81
2024/03/23 03:18:35;;;;;;;2.75;1.80;;;;;;;11.65;100.00;92249.09;2104391;28;20020;-85
2024/03/23 03:19:36;;;;;;;2.72;1.45;;;;;;;11.73;100.00;92244.19;2111345;28;20068;-84
2024/03/23 03:20:40;;;;;;;2.90;1.60;;;;;;;11.64;100.00;92241.50;2119209;28;20054;-81
2024/03/23 03:21:41;;;;;;;2.60;1.60;;;;;;;11.68;100.00;92236.75;2107411;28;20020;-84
2024/03/23 03:22:42;;;;;;;2.85;1.73;;;;;;;11.59;100.00;92235.53;2098349;28;20382;-82
2024/03/23 03:23:44;;;;;;;1.60;1.50;;;;;;;11.63;100.00;92237.31;2098538;28;20025;-82
2024/03/23 03:24:45;;;;;;;3.85;1.63;;;;;;;11.80;100.00;92227.81;2116968;28;20061;-83
2024/03/23 03:25:46;;;;;;;3.78;1.70;;;;;;;11.71;100.00;92239.25;2096084;28;20020;-81
2024/03/23 03:26:47;;;;;;;3.30;1.50;;;;;;;11.80;100.00;92243.88;2096011;28;20023;-81
2024/03/23 03:27:48;;;;;;;2.22;1.65;;;;;;;11.76;100.00;92237.94;2112335;27;20487;-84
2024/03/23 03:28:50;;;;;;;3.28;1.58;;;;;;;11.77;100.00;92229.47;2110142;28;20020;-83
2024/03/23 03:29:51;;;;;;;3.22;1.70;;;;;;;11.70;100.00;92229.00;2112620;27;20032;-84
2024/03/23 03:30:52;;;;;;;3.65;1.80;;;;;;;11.75;100.00;92226.47;2118475;28;20045;-83
2024/03/23 03:31:53;;;;;;;3.97;1.70;;;;;;;11.76;100.00;92222.63;2104019;28;20381;-81
2024/03/23 03:32:55;;;;;;;4.75;1.65;;;;;;;12.05;100.00;92221.47;2115169;28;20426;-83
2024/03/23 03:33:55;;;;;;;2.65;1.63;;;;;;;12.10;100.00;92229.66;2114437;28;20019;-83
2024/03/23 03:34:56;;;;;;;3.95;1.60;;;;;;;12.15;100.00;92224.91;2103805;28;20056;-83
2024/03/23 03:35:57;;;;;;;2.33;1.50;;;;;;;12.42;100.00;92229.50;2105974;28;20430;-82
2024/03/23 03:36:59;;;;;;;2.83;1.58;;;;;;;12.31;100.00;92225.34;2105798;28;20035;-84
2024/03/23 03:38:00;;;;;;;2.70;1.80;;;;;;;12.19;100.00;92220.13;2104974;28;20030;-82
2024/03/23 03:39:03;;;;;;;3.35;1.52;;;;;;;11.95;100.00;92218.06;2098247;28;20017;-82
2024/03/23 03:40:04;;;;;;;3.47;1.90;;;;;;;11.97;100.00;92217.59;2109412;28;20019;-84
2024/03/23 03:41:06;;;;;;;2.70;2.00;;;;;;;12.02;100.00;92219.69;2098250;28;20040;-85
2024/03/23 03:42:07;;;;;;;1.60;1.50;;;;;;;11.89;100.00;92219.81;2092169;28;20072;-82
2024/03/23 03:43:08;;;;;;;1.90;1.60;;;;;;;12.01;100.00;92220.88;2098385;28;20024;-83
2024/03/23 03:44:09;;;;;;;2.45;1.77;;;;;;;11.95;100.00;92211.97;2098081;28;20032;-84
2024/03/23 03:45:10;;;;;;;2.85;1.88;;;;;;;12.04;100.00;92211.97;2098362;28;20035;-84
2024/03/23 03:46:11;;;;;;;3.58;1.70;;;;;;;12.00;100.00;92201.41;2112784;28;20040;-86
2024/03/23 03:47:12;;;;;;;3.17;1.80;;;;;;;12.21;100.00;92201.69;2102595;28;20568;-83
2024/03/23 03:48:13;;;;;;;2.83;1.55;;;;;;;12.35;100.00;92195.72;2093677;28;20075;-83
2024/03/23 03:49:14;;;;;;;3.03;2.28;;;;;;;12.19;100.00;92188.72;2092828;28;20029;-83
2024/03/23 03:50:15;;;;;;;3.72;1.75;;;;;;;12.37;100.00;92187.22;2091591;28;20546;-83
2024/03/23 03:51:16;;;;;;;2.88;2.10;;;;;;;12.39;99.50;92174.88;2093619;28;20124;-82
2024/03/23 03:52:17;;;;;;;2.67;1.75;;;;;;;12.21;100.00;92164.19;2091456;28;20029;-85
2024/03/23 03:53:21;;;;;;;3.65;1.60;;;;;;;12.34;100.00;92162.81;2097722;28;20039;-84
2024/03/23 03:54:22;;;;;;;3.25;1.85;;;;;;;12.28;100.00;92169.97;2098933;28;20059;-83
2024/03/23 03:55:22;;;;;;;1.98;1.73;;;;;;;12.41;99.67;92167.09;2103671;28;20024;-82
2024/03/23 03:56:23;;;;;;;3.80;2.10;;;;;;;12.23;100.00;92173.25;2101794;28;20054;-84
2024/03/23 03:57:24;;;;;;;1.80;1.70;;;;;;;12.28;100.00;92172.63;2091447;28;20029;-84
2024/03/23 03:58:25;;;;;;;3.15;1.83;;;;;;;12.23;100.00;92165.22;2099286;28;20099;-81
2024/03/23 03:59:26;;;;;;;2.50;1.85;;;;;;;12.17;100.00;92172.38;2105471;28;20020;-85
2024/03/23 04:00:27;;;;;;;4.57;1.80;;;;;;;12.20;100.00;92158.06;2100306;28;20019;-82
2024/03/23 04:01:28;;;;;;;2.40;1.67;;;;;;;12.03;100.00;92171.06;2106616;28;20031;-84
2024/03/23 04:02:29;;;;;;;2.72;1.65;;;;;;;11.93;100.00;92166.88;2106707;28;20047;-82
2024/03/23 04:03:30;;;;;;;5.93;1.98;;;;;;;12.12;100.00;92156.16;2098921;28;20028;-85
2024/03/23 04:04:31;;;;;;;2.55;1.90;;;;;;;12.18;100.00;92157.78;2098360;28;20074;-82
2024/03/23 04:05:32;;;;;;;2.95;2.00;;;;;;;12.27;100.00;92163.13;2108622;28;20063;-81
2024/03/23 04:06:33;;;;;;;4.22;2.40;;;;;;;12.25;100.00;92168.19;2093872;28;20019;-87
2024/03/23 04:07:34;;;;;;;3.65;2.10;;;;;;;12.29;100.00;92157.31;2091942;28;20438;-81
2024/03/23 04:08:35;;;;;;;3.17;2.13;;;;;;;12.23;100.00;92151.06;2101556;28;20020;-83
2024/03/23 04:09:36;;;;;;;3.70;2.10;;;;;;;12.15;100.00;92164.03;2104233;28;20025;-80
2024/03/23 04:10:37;;;;;;;4.85;2.28;;;;;;;12.13;100.00;92158.38;2092422;28;20020;-81
2024/03/23 04:11:38;;;;;;;4.00;3.05;;;;;;;12.21;100.00;92156.16;2094035;28;20074;-82
2024/03/23 04:12:39;;;;;;;3.58;2.33;;;;;;;12.16;100.00;92151.38;2094923;28;20126;-84
2024/03/23 04:13:41;;;;;;;2.30;1.90;;;;;;;12.17;100.00;92158.97;2089873;28;20074;-83
2024/03/23 04:14:42;;;;;;;5.10;2.05;;;;;;;12.09;100.00;92147.81;2100327;28;20030;-82
2024/03/23 04:15:43;;;;;;;2.90;2.00;;;;;;;12.01;100.00;92152.00;2119000;27;20019;-83
2024/03/23 04:16:44;;;;;;;2.45;1.83;;;;;;;11.95;100.00;92135.03;2122967;27;20131;-81
2024/03/23 04:17:45;;;;;;;5.85;2.10;;;;;;;12.09;100.00;92139.78;2105929;28;20020;-84
2024/03/23 04:18:47;;;;;;;5.70;2.35;;;;;;;11.86;100.00;92150.38;2103243;28;20036;-84
2024/03/23 04:19:48;;;;;;;4.88;2.30;;;;;;;11.86;100.00;92137.72;2115009;27;20022;-82
2024/03/23 04:20:49;;;;;;;3.72;1.80;;;;;;;12.04;100.00;92139.66;2118176;27;20118;-84
2024/03/23 04:21:50;;;;;;;2.53;2.03;;;;;;;12.06;100.00;92142.59;2098010;28;20341;-81
2024/03/23 04:22:51;;;;;;;2.28;1.95;;;;;;;11.86;100.00;92129.69;2090580;28;20332;-83
2024/03/23 04:23:52;;;;;;;2.10;1.90;;;;;;;11.75;100.00;92122.06;2091752;28;20025;-84
2024/03/23 04:24:57;;;;;;;4.05;2.15;;;;;;;11.81;100.00;92124.91;2097959;28;20510;-84
2024/03/23 04:26:03;;;;;;;3.53;2.05;;;;;;;11.82;100.00;92135.19;2098856;28;20071;-82
2024/03/23 04:27:04;;;;;;;4.22;2.42;;;;;;;11.65;100.00;92138.59;2098135;28;20923;-82
2024/03/23 04:28:05;;;;;;;2.97;2.30;;;;;;;12.03;100.00;92141.59;2097948;28;20078;-81
2024/03/23 04:29:07;;;;;;;5.50;2.58;;;;;;;11.97;100.00;92121.94;2106395;28;20027;-83
2024/03/23 04:30:11;;;;;;;5.28;2.10;;;;;;;12.02;100.00;92129.38;2114437;28;20032;-85
2024/03/23 04:31:12;;;;;;;2.80;2.20;;;;;;;11.81;100.00;92117.63;2106177;28;20070;-82
2024/03/23 04:32:13;;;;;;;3.97;2.40;;;;;;;11.91;100.00;92131.03;2091592;28;20033;-82
2024/03/23 04:33:15;;;;;;;4.38;2.40;;;;;;;11.92;100.00;92108.41;2098890;28;20017;-84
2024/03/23 04:34:16;;;;;;;5.68;2.92;;;;;;;11.95;100.00;92108.25;2098666;28;20020;-82
2024/03/23 04:35:17;;;;;;;2.90;2.20;;;;;;;11.92;100.00;92117.19;2098655;28;20087;-84
2024/03/23 04:36:19;;;;;;;2.90;2.53;;;;;;;11.93;100.00;92124.03;2110996;28;20138;-85
2024/03/23 04:37:21;;;;;;;6.70;2.28;;;;;;;11.92;100.00;92117.19;2103701;28;20411;-84
2024/03/23 04:38:22;;;;;;;4.13;2.08;;;;;;;11.87;100.00;92125.09;2099961;28;20086;-84
2024/03/23 04:39:23;;;;;;;5.35;2.42;;;;;;;11.89;100.00;92111.97;2100012;28;20021;-83
2024/03/23 04:40:24;;;;;;;3.55;2.35;;;;;;;11.86;100.00;92097.56;2088939;28;20052;-81
2024/03/23 04:41:25;;;;;;;8.02;3.83;;;;;;;11.89;100.00;92106.63;2104535;27;20016;-82
2024/03/23 04:42:27;;;;;;;5.93;2.58;;;;;;;12.11;100.00;92109.84;2105898;28;20031;-81
2024/03/23 04:43:28;;;;;;;4.60;2.70;;;;;;;12.11;100.00;92101.81;2099894;28;20501;-81
2024/03/23 04:44:30;;;;;;;4.00;2.85;;;;;;;12.22;100.00;92104.78;2090972;28;20060;-83
2024/03/23 04:45:31;;;;;;;4.70;2.60;;;;;;;12.21;100.00;92099.88;2095031;28;20016;-81
2024/03/23 04:46:32;;;;;;;3.22;2.55;;;;;;;12.15;100.00;92099.72;2101665;28;20103;-82
2024/03/23 04:47:35;;;;;;;3.05;2.60;;;;;;;12.01;100.00;92103.78;2097409;28;20019;-82
2024/03/23 04:48:36;;;;;;;4.53;2.20;;;;;;;11.98;100.00;92107.34;2108145;28;20071;-82